OOCL Atlanta — VRAR6 — position and weather

sailwx.info

Track history (hours):
 
Tides and Currents Weather Stations Pressure Air Temp Water Temp Dewpoint Dewpoint Depression Visibility Wind Speed Wind Dir Waves Ship Positions

OOCL Atlanta

Last reported at 2014-Sep-08 16:33 UTC. Time now 2014-Sep-17 15:39 UTC.
Position N 24°49' E 119°45'.
Warning: this ship's position is 8 days out of date.

Length 323 m; beam 42.8 m; draft 14.5 m.

Type: Cargo ship. MMSI: 477920300.

Date/timePositionNaut miles runAvg speedWind from/ knotsBaromVisibWave heightAir tempDewpointWater temp
2014-Sep-08 16:33N 24°49' E 119°45'6019.9
2014-Sep-08 13:33N 24°08' E 118°57'2121.1
2014-Sep-08 12:33N 23°54' E 118°40'2421.1
2014-Sep-08 11:25N 23°40' E 118°19'1821.0
2014-Sep-08 10:33N 23°31' E 118°01'2020.4
2014-Sep-08 09:33N 23°21' E 117°42'4019.3
2014-Sep-08 07:29N 22°58' E 117°07'2219.1
2014-Sep-08 06:20N 22°45' E 116°48'152 5.1
2014-Sep-07 00:29N 22°18' E 114°06'3 0.1
2014-Sep-05 21:13N 22°20' E 114°07'5 7.1
2014-Sep-05 20:32N 22°21' E 114°02'9 9.6
2014-Sep-05 19:33N 22°25' E 113°53'7 6.6
2014-Sep-05 18:32N 22°32' E 113°51'0 0.0
2014-Sep-05 14:08N 22°32' E 113°51'0 0.0
2014-Sep-05 08:26N 22°32' E 113°51'0 0.0
2014-Sep-05 07:20N 22°32' E 113°51'0 0.0
2014-Sep-05 06:26N 22°32' E 113°51'0 0.0
2014-Sep-05 05:32N 22°32' E 113°51'0 0.0
2014-Sep-05 04:14N 22°32' E 113°51'0 0.0
2014-Sep-05 02:26N 22°32' E 113°51'0 0.0
2014-Sep-05 00:32N 22°32' E 113°51'0 0.0
2014-Sep-04 22:26N 22°32' E 113°51'0 0.0
2014-Sep-04 20:32N 22°32' E 113°51'0 0.0
2014-Sep-04 16:32N 22°32' E 113°51'0 0.0
2014-Sep-04 15:20N 22°32' E 113°51'0 0.0
2014-Sep-04 14:20N 22°32' E 113°51'0 0.0
2014-Sep-04 13:26N 22°32' E 113°51'0 0.0
2014-Sep-04 11:32N 22°32' E 113°51'0 0.0
2014-Sep-04 10:26N 22°32' E 113°51'0 0.0
2014-Sep-04 08:14N 22°32' E 113°51'0 0.0
2014-Sep-04 06:26N 22°32' E 113°51'0 0.0
2014-Sep-04 05:08N 22°32' E 113°51'0 0.0
2014-Sep-04 03:09N 22°32' E 113°51'2 3.4
2014-Sep-04 02:33N 22°30' E 113°51'10 9.7
2014-Sep-04 01:28N 22°21' E 113°57'10 9.8
2014-Sep-04 00:24N 22°16' E 114°07'9 8.5
2014-Sep-03 23:19N 22°09' E 114°14'  
2014-Aug-31 05:05N 01°16' E 104°10'1019.4
2014-Aug-31 04:34N 01°14' E 104°00'9 9.1
2014-Aug-31 03:33N 01°16' E 103°51'0 0.0
2014-Aug-31 02:27N 01°16' E 103°51'0 0.0
2014-Aug-31 01:33N 01°16' E 103°51'0 0.0
2014-Aug-31 00:30N 01°16' E 103°51'0 0.0
2014-Aug-30 23:33N 01°16' E 103°51'0 0.1
2014-Aug-30 22:33N 01°16' E 103°51'0 0.1
2014-Aug-30 21:33N 01°16' E 103°51'0 0.0
2014-Aug-30 20:33N 01°16' E 103°51'0 0.0
2014-Aug-30 19:33N 01°16' E 103°51'0 0.0
2014-Aug-30 18:33N 01°16' E 103°51'0 0.0
2014-Aug-30 17:30N 01°16' E 103°51'0 0.0
2014-Aug-30 16:33N 01°16' E 103°51'0 0.0
2014-Aug-30 15:33N 01°16' E 103°51'0 0.1
2014-Aug-30 14:33N 01°16' E 103°51'0 0.1
2014-Aug-30 13:30N 01°16' E 103°51'0 0.0
2014-Aug-30 12:30N 01°16' E 103°51'0 0.0
2014-Aug-30 11:33N 01°16' E 103°51'0 0.0
2014-Aug-30 10:33N 01°16' E 103°51'0 0.1
2014-Aug-30 09:30N 01°16' E 103°51'0 0.1
2014-Aug-30 08:30N 01°16' E 103°51'0 0.0
2014-Aug-30 07:33N 01°16' E 103°51'0 0.0
2014-Aug-30 06:33N 01°16' E 103°51'0 0.0
2014-Aug-30 05:30N 01°16' E 103°51'0 0.0
2014-Aug-30 04:33N 01°16' E 103°51'0 0.0
2014-Aug-30 03:33N 01°16' E 103°51'0 0.0
2014-Aug-30 02:33N 01°16' E 103°51'0 0.0
2014-Aug-30 01:33N 01°16' E 103°51'0 0.0
2014-Aug-30 00:33N 01°16' E 103°51'0 0.0
2014-Aug-29 23:33N 01°16' E 103°51'0 0.0
2014-Aug-29 22:33N 01°16' E 103°51'0 0.0
2014-Aug-29 21:33N 01°16' E 103°51'0 0.0
2014-Aug-29 20:30N 01°16' E 103°51'0 0.1
2014-Aug-29 19:24N 01°16' E 103°51'0 0.1
2014-Aug-29 18:30N 01°16' E 103°51'0 0.0
2014-Aug-29 17:30N 01°16' E 103°51'0 0.0
2014-Aug-29 16:33N 01°16' E 103°51'  
Track history (hours):
 
Tides and Currents Weather Stations Pressure Air Temp Water Temp Dewpoint Dewpoint Depression Visibility Wind Speed Wind Dir Waves Ship Positions

OOCL Atlanta

Last reported at 2014-Sep-08 16:33 UTC. Time now 2014-Sep-17 15:39 UTC.
Position N 24°49' E 119°45'.
Warning: this ship's position is 8 days out of date.

Length 323 m; beam 42.8 m; draft 14.5 m.

Type: Cargo ship. MMSI: 477920300.

Date/timePositionNaut miles runAvg speedWind from/ knotsBaromVisibWave heightAir tempDewpointWater temp
2014-Sep-08 16:33N 24°49' E 119°45'6019.9
2014-Sep-08 13:33N 24°08' E 118°57'2121.1
2014-Sep-08 12:33N 23°54' E 118°40'2421.1
2014-Sep-08 11:25N 23°40' E 118°19'1821.0
2014-Sep-08 10:33N 23°31' E 118°01'2020.4
2014-Sep-08 09:33N 23°21' E 117°42'4019.3
2014-Sep-08 07:29N 22°58' E 117°07'2219.1
2014-Sep-08 06:20N 22°45' E 116°48'152 5.1
2014-Sep-07 00:29N 22°18' E 114°06'3 0.1
2014-Sep-05 21:13N 22°20' E 114°07'5 7.1
2014-Sep-05 20:32N 22°21' E 114°02'9 9.6
2014-Sep-05 19:33N 22°25' E 113°53'7 6.6
2014-Sep-05 18:32N 22°32' E 113°51'0 0.0
2014-Sep-05 14:08N 22°32' E 113°51'0 0.0
2014-Sep-05 08:26N 22°32' E 113°51'0 0.0
2014-Sep-05 07:20N 22°32' E 113°51'0 0.0
2014-Sep-05 06:26N 22°32' E 113°51'0 0.0
2014-Sep-05 05:32N 22°32' E 113°51'0 0.0
2014-Sep-05 04:14N 22°32' E 113°51'0 0.0
2014-Sep-05 02:26N 22°32' E 113°51'0 0.0
2014-Sep-05 00:32N 22°32' E 113°51'0 0.0
2014-Sep-04 22:26N 22°32' E 113°51'0 0.0
2014-Sep-04 20:32N 22°32' E 113°51'0 0.0
2014-Sep-04 16:32N 22°32' E 113°51'0 0.0
2014-Sep-04 15:20N 22°32' E 113°51'0 0.0
2014-Sep-04 14:20N 22°32' E 113°51'0 0.0
2014-Sep-04 13:26N 22°32' E 113°51'0 0.0
2014-Sep-04 11:32N 22°32' E 113°51'0 0.0
2014-Sep-04 10:26N 22°32' E 113°51'0 0.0
2014-Sep-04 08:14N 22°32' E 113°51'0 0.0
2014-Sep-04 06:26N 22°32' E 113°51'0 0.0
2014-Sep-04 05:08N 22°32' E 113°51'0 0.0
2014-Sep-04 03:09N 22°32' E 113°51'2 3.4
2014-Sep-04 02:33N 22°30' E 113°51'10 9.7
2014-Sep-04 01:28N 22°21' E 113°57'10 9.8
2014-Sep-04 00:24N 22°16' E 114°07'9 8.5
2014-Sep-03 23:19N 22°09' E 114°14'  
2014-Aug-31 05:05N 01°16' E 104°10'1019.4
2014-Aug-31 04:34N 01°14' E 104°00'9 9.1
2014-Aug-31 03:33N 01°16' E 103°51'0 0.0
2014-Aug-31 02:27N 01°16' E 103°51'0 0.0
2014-Aug-31 01:33N 01°16' E 103°51'0 0.0
2014-Aug-31 00:30N 01°16' E 103°51'0 0.0
2014-Aug-30 23:33N 01°16' E 103°51'0 0.1
2014-Aug-30 22:33N 01°16' E 103°51'0 0.1
2014-Aug-30 21:33N 01°16' E 103°51'0 0.0
2014-Aug-30 20:33N 01°16' E 103°51'0 0.0
2014-Aug-30 19:33N 01°16' E 103°51'0 0.0
2014-Aug-30 18:33N 01°16' E 103°51'0 0.0
2014-Aug-30 17:30N 01°16' E 103°51'0 0.0
2014-Aug-30 16:33N 01°16' E 103°51'0 0.0
2014-Aug-30 15:33N 01°16' E 103°51'0 0.1
2014-Aug-30 14:33N 01°16' E 103°51'0 0.1
2014-Aug-30 13:30N 01°16' E 103°51'0 0.0
2014-Aug-30 12:30N 01°16' E 103°51'0 0.0
2014-Aug-30 11:33N 01°16' E 103°51'0 0.0
2014-Aug-30 10:33N 01°16' E 103°51'0 0.1
2014-Aug-30 09:30N 01°16' E 103°51'0 0.1
2014-Aug-30 08:30N 01°16' E 103°51'0 0.0
2014-Aug-30 07:33N 01°16' E 103°51'0 0.0
2014-Aug-30 06:33N 01°16' E 103°51'0 0.0
2014-Aug-30 05:30N 01°16' E 103°51'0 0.0
2014-Aug-30 04:33N 01°16' E 103°51'0 0.0
2014-Aug-30 03:33N 01°16' E 103°51'0 0.0
2014-Aug-30 02:33N 01°16' E 103°51'0 0.0
2014-Aug-30 01:33N 01°16' E 103°51'0 0.0
2014-Aug-30 00:33N 01°16' E 103°51'0 0.0
2014-Aug-29 23:33N 01°16' E 103°51'0 0.0
2014-Aug-29 22:33N 01°16' E 103°51'0 0.0
2014-Aug-29 21:33N 01°16' E 103°51'0 0.0
2014-Aug-29 20:30N 01°16' E 103°51'0 0.1
2014-Aug-29 19:24N 01°16' E 103°51'0 0.1
2014-Aug-29 18:30N 01°16' E 103°51'0 0.0
2014-Aug-29 17:30N 01°16' E 103°51'0 0.0
2014-Aug-29 16:33N 01°16' E 103°51'  

Dump ship's entire track history